^^
Saratoga-Weather Station Historical Data
Daily Summary for January 4, 2021 Units:  Both    English   Metric
Daily Weekly Monthly Yearly Custom
  High: Low: Average:
Temperature: 82.8 °F /  28.2 °C 61.2 °F /  16.2 °C 68.5 °F /  20.3 °C
Dew Point: 67.8 °F /  19.9 °C 58.5 °F /  14.7 °C 63 °F /  17.2 °C
Humidity: 98% 54% 85%
Wind Speed: 15mph /  24.1km/h - 1.4mph /  2.2km/h
Wind Gust: 20mph /  32.2km/h - -
Wind- - South
Pressure: 30.1 in /  1019.6 hPa 30 in /  1015.9 hPa -
Precipitation: 0.06 in /  1.5 mm    
Historical Graphs
 
 
Tabular Data for January 4, 2021
Time Temperature Dew Point Pressure Wind Wind Speed Wind Gust Humidity Rainfall Rate (Hourly) solar
00:04 63.9 °F /  17.7 °C 62.8 °F /  17.1 °C 30.1in /  1019.3hPa Calm     96% 0in /  0.0mm 0 W/m2
00:09 63.7 °F /  17.6 °C 62.6 °F /  17 °C 30.1in /  1019.3hPa Calm     96% 0in /  0.0mm 0 W/m2
00:14 63.5 °F /  17.5 °C 62.1 °F /  16.7 °C 30.1in /  1019.3hPa Calm     95% 0in /  0.0mm 0 W/m2
00:19 63.3 °F /  17.4 °C 62.2 °F /  16.8 °C 30.1in /  1019.3hPa Calm     96% 0in /  0.0mm 0 W/m2
00:24 63.1 °F /  17.3 °C 62.1 °F /  16.7 °C 30.1in /  1019.3hPa Calm     96% 0in /  0.0mm 0 W/m2
00:29 63.1 °F /  17.3 °C 62.1 °F /  16.7 °C 30.1in /  1019.3hPa Calm     96% 0in /  0.0mm 0 W/m2
00:34 63.1 °F /  17.3 °C 62.1 °F /  16.7 °C 30.1in /  1019.3hPa Calm   2mph /  3.2km/h 96% 0in /  0.0mm 0 W/m2
00:39 63.3 °F /  17.4 °C 62.2 °F /  16.8 °C 30.1in /  1019.3hPa Calm     96% 0in /  0.0mm 0 W/m2
00:44 63.3 °F /  17.4 °C 62.2 °F /  16.8 °C 30.1in /  1019.3hPa Calm   2mph /  3.2km/h 96% 0in /  0.0mm 0 W/m2
00:49 63.3 °F /  17.4 °C 62.2 °F /  16.8 °C 30.1in /  1019.0hPa Calm     96% 0in /  0.0mm 0 W/m2
00:54 63.1 °F /  17.3 °C 62.1 °F /  16.7 °C 30.1in /  1019.0hPa Calm     96% 0in /  0.0mm 0 W/m2
00:59 63.1 °F /  17.3 °C 62.1 °F /  16.7 °C 30.1in /  1019.0hPa Calm     96% 0in /  0.0mm 0 W/m2
01:05 63 °F /  17.2 °C 61.9 °F /  16.6 °C 30.1in /  1019.0hPa Calm     96% 0in /  0.0mm 0 W/m2
01:10 63 °F /  17.2 °C 61.9 °F /  16.6 °C 30.1in /  1019.0hPa Calm     96% 0in /  0.0mm 0 W/m2
01:15 63 °F /  17.2 °C 61.9 °F /  16.6 °C 30.1in /  1019.0hPa Calm     96% 0in /  0.0mm 0 W/m2
01:20 63 °F /  17.2 °C 61.9 °F /  16.6 °C 30.1in /  1019.0hPa Calm     96% 0in /  0.0mm 0 W/m2
01:25 62.8 °F /  17.1 °C 61.7 °F /  16.5 °C 30.1in /  1019.0hPa Calm     96% 0in /  0.0mm 0 W/m2
01:30 62.6 °F /  17 °C 61.5 °F /  16.4 °C 30.1in /  1019.0hPa Calm     96% 0in /  0.0mm 0 W/m2
01:35 62.4 °F /  16.9 °C 61.3 °F /  16.3 °C 30.1in /  1019.0hPa Calm     96% 0in /  0.0mm 0 W/m2
01:40 62.2 °F /  16.8 °C 61.2 °F /  16.2 °C 30.1in /  1019.0hPa Calm     96% 0in /  0.0mm 0 W/m2
01:45 62.2 °F /  16.8 °C 61.2 °F /  16.2 °C 30.1in /  1019.0hPa Calm     96% 0in /  0.0mm 0 W/m2
01:50 62.1 °F /  16.7 °C 61 °F /  16.1 °C 30.1in /  1019.0hPa Calm     96% 0in /  0.0mm 0 W/m2
01:55 62.2 °F /  16.8 °C 61.2 °F /  16.2 °C 30.1in /  1019.0hPa Calm     96% 0in /  0.0mm 0 W/m2
02:00 62.1 °F /  16.7 °C 61 °F /  16.1 °C 30.1in /  1019.0hPa Calm     96% 0in /  0.0mm 0 W/m2
02:05 62.1 °F /  16.7 °C 61 °F /  16.1 °C 30.1in /  1019.0hPa Calm     96% 0in /  0.0mm 0 W/m2
02:10 62.1 °F /  16.7 °C 61 °F /  16.1 °C 30.1in /  1019.0hPa Calm     96% 0in /  0.0mm 0 W/m2
02:15 62.1 °F /  16.7 °C 61 °F /  16.1 °C 30.1in /  1019.0hPa Calm     96% 0in /  0.0mm 0 W/m2
02:20 62.1 °F /  16.7 °C 61 °F /  16.1 °C 30.1in /  1019.0hPa Calm     96% 0in /  0.0mm 0 W/m2
02:25 61.9 °F /  16.6 °C 60.8 °F /  16 °C 30.1in /  1019.0hPa Calm     96% 0in /  0.0mm 0 W/m2
02:30 61.9 °F /  16.6 °C 61 °F /  16.1 °C 30.1in /  1019.0hPa Calm     97% 0in /  0.0mm 0 W/m2
02:35 61.9 °F /  16.6 °C 61 °F /  16.1 °C 30.1in /  1019.0hPa Calm     97% 0in /  0.0mm 0 W/m2
02:41 61.9 °F /  16.6 °C 61 °F /  16.1 °C 30.1in /  1019.0hPa Calm     97% 0in /  0.0mm 0 W/m2
02:46 61.9 °F /  16.6 °C 61 °F /  16.1 °C 30.1in /  1019.0hPa Calm     97% 0in /  0.0mm 0 W/m2
02:51 61.9 °F /  16.6 °C 61 °F /  16.1 °C 30.1in /  1019.0hPa Calm     97% 0in /  0.0mm 0 W/m2
02:56 61.9 °F /  16.6 °C 61 °F /  16.1 °C 30.1in /  1019.0hPa WSW 2mph /  3.2km/h 2mph /  3.2km/h 97% 0in /  0.0mm 0 W/m2
03:01 61.7 °F /  16.5 °C 60.6 °F /  15.9 °C 30.1in /  1019.0hPa Calm     96% 0in /  0.0mm 0 W/m2
03:06 61.5 °F /  16.4 °C 60.4 °F /  15.8 °C 30.1in /  1019.0hPa Calm     96% 0in /  0.0mm 0 W/m2
03:11 61.5 °F /  16.4 °C 60.4 °F /  15.8 °C 30.1in /  1018.6hPa Calm     96% 0in /  0.0mm 0 W/m2
03:16 61.3 °F /  16.3 °C 60.3 °F /  15.7 °C 30.1in /  1018.6hPa Calm     96% 0in /  0.0mm 0 W/m2
03:21 61.2 °F /  16.2 °C 60.3 °F /  15.7 °C 30.1in /  1019.0hPa Calm     97% 0in /  0.0mm 0 W/m2
03:26 61.3 °F /  16.3 °C 60.4 °F /  15.8 °C 30.1in /  1019.0hPa Calm     97% 0in /  0.0mm 0 W/m2
03:31 61.2 °F /  16.2 °C 60.3 °F /  15.7 °C 30.1in /  1019.0hPa Calm     97% 0in /  0.0mm 0 W/m2
03:36 61.2 °F /  16.2 °C 60.3 °F /  15.7 °C 30.1in /  1018.6hPa Calm     97% 0in /  0.0mm 0 W/m2
03:41 61.2 °F /  16.2 °C 60.3 °F /  15.7 °C 30.1in /  1019.0hPa Calm     97% 0in /  0.0mm 0 W/m2
03:46 61.3 °F /  16.3 °C 60.4 °F /  15.8 °C 30.1in /  1019.0hPa Calm     97% 0in /  0.0mm 0 W/m2
03:51 61.3 °F /  16.3 °C 60.4 °F /  15.8 °C 30.1in /  1019.0hPa Calm     97% 0in /  0.0mm 0 W/m2
03:56 61.3 °F /  16.3 °C 60.4 °F /  15.8 °C 30.1in /  1019.0hPa Calm     97% 0in /  0.0mm 0 W/m2
04:01 61.5 °F /  16.4 °C 60.6 °F /  15.9 °C 30.1in /  1019.0hPa Calm     97% 0in /  0.0mm 0 W/m2
04:06 61.5 °F /  16.4 °C 60.6 °F /  15.9 °C 30.1in /  1019.0hPa Calm     97% 0in /  0.0mm 0 W/m2
04:11 61.5 °F /  16.4 °C 60.6 °F /  15.9 °C 30.1in /  1019.0hPa Calm     97% 0in /  0.0mm 0 W/m2
04:16 61.9 °F /  16.6 °C 61 °F /  16.1 °C 30.1in /  1019.0hPa Calm     97% 0in /  0.0mm 0 W/m2
04:21 62.1 °F /  16.7 °C 61.2 °F /  16.2 °C 30.1in /  1019.0hPa WSW 0.9mph /  1.4km/h 2mph /  3.2km/h 97% 0in /  0.0mm 0 W/m2
04:26 62.2 °F /  16.8 °C 61.3 °F /  16.3 °C 30.1in /  1019.0hPa Calm   2mph /  3.2km/h 97% 0in /  0.0mm 0 W/m2
04:31 62.1 °F /  16.7 °C 61.2 °F /  16.2 °C 30.1in /  1019.0hPa WSW 0.9mph /  1.4km/h 2mph /  3.2km/h 97% 0in /  0.0mm 0 W/m2
04:36 61.9 °F /  16.6 °C 61 °F /  16.1 °C 30.1in /  1019.0hPa Calm     97% 0in /  0.0mm 0 W/m2
04:41 61.7 °F /  16.5 °C 60.8 °F /  16 °C 30.1in /  1019.0hPa Calm   2mph /  3.2km/h 97% 0in /  0.0mm 0 W/m2
04:46 61.7 °F /  16.5 °C 60.8 °F /  16 °C 30.1in /  1019.0hPa Calm     97% 0in /  0.0mm 0 W/m2
04:51 61.5 °F /  16.4 °C 60.6 °F /  15.9 °C 30.1in /  1019.0hPa Calm     97% 0in /  0.0mm 0 W/m2
04:56 61.5 °F /  16.4 °C 60.6 °F /  15.9 °C 30.1in /  1019.0hPa Calm     97% 0in /  0.0mm 0 W/m2
05:01 61.5 °F /  16.4 °C 60.6 °F /  15.9 °C 30.1in /  1019.0hPa Calm     97% 0in /  0.0mm 0 W/m2
05:06 61.5 °F /  16.4 °C 60.6 °F /  15.9 °C 30.1in /  1019.0hPa Calm     97% 0in /  0.0mm 0 W/m2
05:11 61.5 °F /  16.4 °C 60.6 °F /  15.9 °C 30.1in /  1019.0hPa Calm     97% 0in /  0.0mm 0 W/m2
05:16 61.5 °F /  16.4 °C 60.6 °F /  15.9 °C 30.1in /  1019.0hPa Calm     97% 0in /  0.0mm 0 W/m2
05:21 61.7 °F /  16.5 °C 60.8 °F /  16 °C 30.1in /  1019.0hPa Calm     97% 0in /  0.0mm 0 W/m2
05:26 61.9 °F /  16.6 °C 61 °F /  16.1 °C 30.1in /  1019.0hPa Calm     97% 0in /  0.0mm 0 W/m2
05:31 62.1 °F /  16.7 °C 61.2 °F /  16.2 °C 30.1in /  1019.0hPa Calm     97% 0in /  0.0mm 0 W/m2
05:36 62.1 °F /  16.7 °C 61.2 °F /  16.2 °C 30.1in /  1019.0hPa Calm     97% 0in /  0.0mm 5 W/m2
05:41 62.1 °F /  16.7 °C 61.2 °F /  16.2 °C 30.1in /  1019.0hPa Calm     97% 0in /  0.0mm 7 W/m2
05:46 62.1 °F /  16.7 °C 61.2 °F /  16.2 °C 30.1in /  1019.0hPa Calm     97% 0in /  0.0mm 14 W/m2
05:51 61.9 °F /  16.6 °C 61 °F /  16.1 °C 30.1in /  1019.3hPa Calm     97% 0in /  0.0mm 14 W/m2
05:56 61.9 °F /  16.6 °C 61 °F /  16.1 °C 30.1in /  1019.3hPa Calm     97% 0in /  0.0mm 11 W/m2
06:01 62.1 °F /  16.7 °C 61.2 °F /  16.2 °C 30.1in /  1019.3hPa Calm     97% 0in /  0.0mm 12 W/m2
06:06 62.1 °F /  16.7 °C 61.2 °F /  16.2 °C 30.1in /  1019.0hPa Calm     97% 0in /  0.0mm 14 W/m2
06:11 62.1 °F /  16.7 °C 61.2 °F /  16.2 °C 30.1in /  1019.3hPa Calm     97% 0in /  0.0mm 18 W/m2
06:16 62.1 °F /  16.7 °C 61.2 °F /  16.2 °C 30.1in /  1019.3hPa Calm     97% 0in /  0.0mm 21 W/m2
06:21 62.1 °F /  16.7 °C 61.2 °F /  16.2 °C 30.1in /  1019.3hPa Calm     97% 0in /  0.0mm 21 W/m2
06:26 62.1 °F /  16.7 °C 61.2 °F /  16.2 °C 30.1in /  1019.3hPa Calm     97% 0in /  0.0mm 26 W/m2
06:31 62.1 °F /  16.7 °C 61.2 °F /  16.2 °C 30.1in /  1019.3hPa Calm     97% 0in /  0.0mm 30 W/m2
06:36 62.1 °F /  16.7 °C 61.2 °F /  16.2 °C 30.1in /  1019.3hPa Calm     97% 0in /  0.0mm 32 W/m2
06:42 62.1 °F /  16.7 °C 61.2 °F /  16.2 °C 30.1in /  1019.3hPa Calm     97% 0in /  0.0mm 35 W/m2
06:47 62.1 °F /  16.7 °C 61.2 °F /  16.2 °C 30.1in /  1019.3hPa Calm     97% 0in /  0.0mm 35 W/m2
06:52 62.1 °F /  16.7 °C 61.2 °F /  16.2 °C 30.1in /  1019.3hPa Calm     97% 0in /  0.0mm 42 W/m2
06:57 62.2 °F /  16.8 °C 61.3 °F /  16.3 °C 30.1in /  1019.3hPa Calm     97% 0in /  0.0mm 54 W/m2
07:02 62.2 °F /  16.8 °C 61.3 °F /  16.3 °C 30.1in /  1019.3hPa Calm     97% 0in /  0.0mm 58 W/m2
07:07 62.2 °F /  16.8 °C 61.3 °F /  16.3 °C 30.1in /  1019.3hPa Calm     97% 0in /  0.0mm 70 W/m2
07:12 62.2 °F /  16.8 °C 61.3 °F /  16.3 °C 30.1in /  1019.3hPa Calm     97% 0in /  0.0mm 86 W/m2
07:17 62.4 °F /  16.9 °C 61.5 °F /  16.4 °C 30.1in /  1019.3hPa Calm     97% 0in /  0.0mm 86 W/m2
07:22 62.4 °F /  16.9 °C 61.5 °F /  16.4 °C 30.1in /  1019.3hPa Calm     97% 0in /  0.0mm 81 W/m2
07:27 62.6 °F /  17 °C 61.7 °F /  16.5 °C 30.1in /  1019.3hPa Calm     97% 0in /  0.0mm 97 W/m2
07:32 62.8 °F /  17.1 °C 62.2 °F /  16.8 °C 30.1in /  1019.3hPa Calm     98% 0in /  0.0mm 98 W/m2
07:37 62.8 °F /  17.1 °C 62.2 °F /  16.8 °C 30.1in /  1019.3hPa NNW 0.9mph /  1.4km/h 2mph /  3.2km/h 98% 0in /  0.0mm 111 W/m2
07:42 62.8 °F /  17.1 °C 62.2 °F /  16.8 °C 30.1in /  1019.3hPa Calm     98% 0in /  0.0mm 114 W/m2
07:47 62.8 °F /  17.1 °C 62.2 °F /  16.8 °C 30.1in /  1019.3hPa NE 2mph /  3.2km/h 2mph /  3.2km/h 98% 0in /  0.0mm 160 W/m2
07:52 62.8 °F /  17.1 °C 62.2 °F /  16.8 °C 30.1in /  1019.3hPa NE 0.9mph /  1.4km/h 2mph /  3.2km/h 98% 0in /  0.0mm 120 W/m2
07:57 62.8 °F /  17.1 °C 61.9 °F /  16.6 °C 30.1in /  1019.3hPa Calm     97% 0in /  0.0mm 179 W/m2
08:02 63 °F /  17.2 °C 62.4 °F /  16.9 °C 30.1in /  1019.3hPa ENE 0.9mph /  1.4km/h 2mph /  3.2km/h 98% 0in /  0.0mm 162 W/m2
08:07 63 °F /  17.2 °C 62.1 °F /  16.7 °C 30.1in /  1019.3hPa ENE 0.9mph /  1.4km/h 1mph /  1.6km/h 97% 0in /  0.0mm 125 W/m2
08:12 63.1 °F /  17.3 °C 62.2 °F /  16.8 °C 30.1in /  1019.3hPa Calm   2mph /  3.2km/h 97% 0in /  0.0mm 188 W/m2
08:17 63.3 °F /  17.4 °C 62.8 °F /  17.1 °C 30.1in /  1019.3hPa Calm   1mph /  1.6km/h 98% 0in /  0.0mm 114 W/m2
08:22 63.5 °F /  17.5 °C 63 °F /  17.2 °C 30.1in /  1019.3hPa NE 2mph /  3.2km/h 3mph /  4.8km/h 98% 0in /  0.0mm 118 W/m2
08:27 63.7 °F /  17.6 °C 63.1 °F /  17.3 °C 30.1in /  1019.3hPa East 0.9mph /  1.4km/h 2mph /  3.2km/h 98% 0in /  0.0mm 199 W/m2
08:32 63.7 °F /  17.6 °C 63.1 °F /  17.3 °C 30.1in /  1019.6hPa North 0.9mph /  1.4km/h 4mph /  6.4km/h 98% 0in /  0.0mm 162 W/m2
08:37 63.9 °F /  17.7 °C 63.3 °F /  17.4 °C 30.1in /  1019.6hPa East 2mph /  3.2km/h 4mph /  6.4km/h 98% 0in /  0.0mm 169 W/m2
08:42 64 °F /  17.8 °C 63.5 °F /  17.5 °C 30.1in /  1019.6hPa East 0.9mph /  1.4km/h 2mph /  3.2km/h 98% 0in /  0.0mm 178 W/m2
08:47 64.2 °F /  17.9 °C 63.7 °F /  17.6 °C 30.1in /  1019.6hPa East 2mph /  3.2km/h 4mph /  6.4km/h 98% 0in /  0.0mm 148 W/m2
08:52 64.8 °F /  18.2 °C 63.9 °F /  17.7 °C 30.1in /  1019.3hPa Calm   3mph /  4.8km/h 97% 0in /  0.0mm 98 W/m2
08:57 65.1 °F /  18.4 °C 64.2 °F /  17.9 °C 30.1in /  1019.3hPa Calm   2mph /  3.2km/h 97% 0in /  0.0mm 114 W/m2
09:02 65.5 °F /  18.6 °C 64.6 °F /  18.1 °C 30.1in /  1019.3hPa NE 0.9mph /  1.4km/h 2mph /  3.2km/h 97% 0in /  0.0mm 160 W/m2
09:07 65.8 °F /  18.8 °C 64.9 °F /  18.3 °C 30.1in /  1019.3hPa East 0.9mph /  1.4km/h 2mph /  3.2km/h 97% 0in /  0.0mm 311 W/m2
09:12 66.6 °F /  19.2 °C 65.3 °F /  18.5 °C 30.1in /  1019.6hPa ESE 0.9mph /  1.4km/h 3mph /  4.8km/h 96% 0in /  0.0mm 418 W/m2
09:17 66.9 °F /  19.4 °C 65.5 °F /  18.6 °C 30.1in /  1019.6hPa Calm   1mph /  1.6km/h 95% 0in /  0.0mm 462 W/m2
09:22 67.6 °F /  19.8 °C 65.8 °F /  18.8 °C 30.1in /  1019.6hPa ESE 0.9mph /  1.4km/h 4mph /  6.4km/h 94% 0in /  0.0mm 468 W/m2
09:27 68.4 °F /  20.2 °C 66 °F /  18.9 °C 30.1in /  1019.6hPa ESE 0.9mph /  1.4km/h 3mph /  4.8km/h 92% 0in /  0.0mm 443 W/m2
09:32 68.9 °F /  20.5 °C 66.2 °F /  19 °C 30.1in /  1019.6hPa East 2mph /  3.2km/h 4mph /  6.4km/h 91% 0in /  0.0mm 424 W/m2
09:37 69.3 °F /  20.7 °C 65.8 °F /  18.8 °C 30.1in /  1019.6hPa NE 2.9mph /  4.7km/h 3mph /  4.8km/h 89% 0in /  0.0mm 485 W/m2
09:42 69.6 °F /  20.9 °C 65.8 °F /  18.8 °C 30.1in /  1019.6hPa WSW 2.9mph /  4.7km/h 3mph /  4.8km/h 88% 0in /  0.0mm 536 W/m2
09:47 70.2 °F /  21.2 °C 66 °F /  18.9 °C 30.1in /  1019.6hPa West 0.9mph /  1.4km/h 4mph /  6.4km/h 87% 0in /  0.0mm 548 W/m2
09:52 70.5 °F /  21.4 °C 65.8 °F /  18.8 °C 30.1in /  1019.6hPa East 2.9mph /  4.7km/h 6mph /  9.7km/h 85% 0in /  0.0mm 540 W/m2
09:57 71.1 °F /  21.7 °C 66.4 °F /  19.1 °C 30.1in /  1019.6hPa North 0.9mph /  1.4km/h 3mph /  4.8km/h 85% 0in /  0.0mm 573 W/m2
10:02 71.2 °F /  21.8 °C 65.5 °F /  18.6 °C 30.1in /  1019.6hPa NE 0.9mph /  1.4km/h 2mph /  3.2km/h 82% 0in /  0.0mm 90 W/m2
10:07 71.6 °F /  22 °C 65.8 °F /  18.8 °C 30.1in /  1019.6hPa ESE 0.9mph /  1.4km/h 2mph /  3.2km/h 82% 0in /  0.0mm 97 W/m2
10:12 72 °F /  22.2 °C 65.5 °F /  18.6 °C 30.1in /  1019.6hPa Calm   3mph /  4.8km/h 80% 0in /  0.0mm 580 W/m2
10:17 72.3 °F /  22.4 °C 66.6 °F /  19.2 °C 30.1in /  1019.6hPa NE 2mph /  3.2km/h 4mph /  6.4km/h 82% 0in /  0.0mm 617 W/m2
10:22 72.7 °F /  22.6 °C 65.8 °F /  18.8 °C 30.1in /  1019.3hPa Calm   3mph /  4.8km/h 79% 0in /  0.0mm 622 W/m2
10:27 73 °F /  22.8 °C 66.2 °F /  19 °C 30.1in /  1019.3hPa ESE 0.9mph /  1.4km/h 4mph /  6.4km/h 79% 0in /  0.0mm 633 W/m2
10:32 73.4 °F /  23 °C 66.6 °F /  19.2 °C 30.1in /  1019.3hPa NE 8mph /  12.9km/h 8mph /  12.9km/h 79% 0in /  0.0mm 649 W/m2
10:37 73.6 °F /  23.1 °C 65.8 °F /  18.8 °C 30.1in /  1019.3hPa ENE 0.9mph /  1.4km/h 4mph /  6.4km/h 77% 0in /  0.0mm 661 W/m2
10:42 73.6 °F /  23.1 °C 66.7 °F /  19.3 °C 30.1in /  1019.3hPa East 7mph /  11.3km/h 7mph /  11.3km/h 79% 0in /  0.0mm 679 W/m2
10:47 73.9 °F /  23.3 °C 67.1 °F /  19.5 °C 30.1in /  1019.3hPa East 0.9mph /  1.4km/h 7mph /  11.3km/h 79% 0in /  0.0mm 689 W/m2
10:52 74.5 °F /  23.6 °C 66.4 °F /  19.1 °C 30.1in /  1019.3hPa East 0.9mph /  1.4km/h 4mph /  6.4km/h 76% 0in /  0.0mm 700 W/m2
10:57 74.8 °F /  23.8 °C 66.7 °F /  19.3 °C 30.1in /  1019.3hPa ENE 2.9mph /  4.7km/h 6mph /  9.7km/h 76% 0in /  0.0mm 708 W/m2
11:02 75 °F /  23.9 °C 66.9 °F /  19.4 °C 30.1in /  1019.3hPa Calm   2mph /  3.2km/h 76% 0in /  0.0mm 714 W/m2
11:07 75.6 °F /  24.2 °C 67.1 °F /  19.5 °C 30.1in /  1019.3hPa SE 4mph /  6.4km/h 7mph /  11.3km/h 75% 0in /  0.0mm 728 W/m2
11:12 75.7 °F /  24.3 °C 66.9 °F /  19.4 °C 30.1in /  1019.3hPa NE 2mph /  3.2km/h 4mph /  6.4km/h 74% 0in /  0.0mm 737 W/m2
11:17 75.9 °F /  24.4 °C 67.1 °F /  19.5 °C 30.1in /  1019.3hPa SE 0.9mph /  1.4km/h 7mph /  11.3km/h 74% 0in /  0.0mm 745 W/m2
11:22 75.7 °F /  24.3 °C 66.9 °F /  19.4 °C 30.1in /  1019.3hPa ESE 4mph /  6.4km/h 4mph /  6.4km/h 74% 0in /  0.0mm 749 W/m2
11:27 76.3 °F /  24.6 °C 67.8 °F /  19.9 °C 30.1in /  1019.0hPa Calm   3mph /  4.8km/h 75% 0in /  0.0mm 768 W/m2
11:32 76.6 °F /  24.8 °C 67.3 °F /  19.6 °C 30.1in /  1019.0hPa South 0.9mph /  1.4km/h 6mph /  9.7km/h 73% 0in /  0.0mm 777 W/m2
11:37 76.8 °F /  24.9 °C 66.7 °F /  19.3 °C 30.1in /  1019.0hPa ESE 2.9mph /  4.7km/h 4mph /  6.4km/h 71% 0in /  0.0mm 786 W/m2
11:42 77 °F /  25 °C 67.3 °F /  19.6 °C 30.1in /  1019.0hPa SW 2mph /  3.2km/h 2mph /  3.2km/h 72% 0in /  0.0mm 795 W/m2
11:47 77.2 °F /  25.1 °C 66.6 °F /  19.2 °C 30.1in /  1019.0hPa SE 4mph /  6.4km/h 6mph /  9.7km/h 70% 0in /  0.0mm 803 W/m2
11:52 77.5 °F /  25.3 °C 66.6 °F /  19.2 °C 30.1in /  1019.0hPa ENE 2mph /  3.2km/h 2mph /  3.2km/h 69% 0in /  0.0mm 803 W/m2
11:57 77.7 °F /  25.4 °C 67.1 °F /  19.5 °C 30.1in /  1019.0hPa ESE 0.9mph /  1.4km/h 1mph /  1.6km/h 70% 0in /  0.0mm 812 W/m2
12:02 78.3 °F /  25.7 °C 67.3 °F /  19.6 °C 30.1in /  1019.0hPa SSE 2.9mph /  4.7km/h 6mph /  9.7km/h 69% 0in /  0.0mm 824 W/m2
12:07 78.3 °F /  25.7 °C 66.7 °F /  19.3 °C 30.1in /  1019.0hPa ESE 2mph /  3.2km/h 3mph /  4.8km/h 68% 0in /  0.0mm 830 W/m2
12:12 78.4 °F /  25.8 °C 66.6 °F /  19.2 °C 30.1in /  1019.0hPa North 2mph /  3.2km/h 5mph /  8km/h 67% 0in /  0.0mm 835 W/m2
12:17 78.6 °F /  25.9 °C 66.4 °F /  19.1 °C 30.1in /  1019.0hPa East 2.9mph /  4.7km/h 9mph /  14.5km/h 66% 0in /  0.0mm 840 W/m2
12:22 78.8 °F /  26 °C 66.9 °F /  19.4 °C 30.1in /  1019.0hPa East 4mph /  6.4km/h 4mph /  6.4km/h 67% 0in /  0.0mm 833 W/m2
12:27 79 °F /  26.1 °C 67.1 °F /  19.5 °C 30.1in /  1018.6hPa East 2.9mph /  4.7km/h 9mph /  14.5km/h 67% 0in /  0.0mm 846 W/m2
12:32 79 °F /  26.1 °C 66.6 °F /  19.2 °C 30.1in /  1018.6hPa ENE 0.9mph /  1.4km/h 8mph /  12.9km/h 66% 0in /  0.0mm 853 W/m2
12:37 79.2 °F /  26.2 °C 67.3 °F /  19.6 °C 30.1in /  1018.6hPa East 0.9mph /  1.4km/h 4mph /  6.4km/h 67% 0in /  0.0mm 867 W/m2
12:42 79.3 °F /  26.3 °C 66.6 °F /  19.2 °C 30.1in /  1018.6hPa East 2.9mph /  4.7km/h 8mph /  12.9km/h 65% 0in /  0.0mm 872 W/m2
12:47 79.7 °F /  26.5 °C 66.9 °F /  19.4 °C 30.1in /  1018.6hPa ESE 2mph /  3.2km/h 3mph /  4.8km/h 65% 0in /  0.0mm 875 W/m2
12:52 79.9 °F /  26.6 °C 66.2 °F /  19 °C 30.1in /  1018.3hPa North 2mph /  3.2km/h 6mph /  9.7km/h 63% 0in /  0.0mm 882 W/m2
12:57 79.9 °F /  26.6 °C 66.6 °F /  19.2 °C 30.1in /  1018.3hPa ESE 4mph /  6.4km/h 4mph /  6.4km/h 64% 0in /  0.0mm 888 W/m2
13:02 80.1 °F /  26.7 °C 65.5 °F /  18.6 °C 30.1in /  1018.3hPa ENE 4.9mph /  7.9km/h 5mph /  8km/h 61% 0in /  0.0mm 891 W/m2
13:07 80.2 °F /  26.8 °C 65.5 °F /  18.6 °C 30.1in /  1018.3hPa North 4mph /  6.4km/h 5mph /  8km/h 61% 0in /  0.0mm 900 W/m2
13:12 80.1 °F /  26.7 °C 64.4 °F /  18 °C 30.1in /  1018.3hPa SSE 0.9mph /  1.4km/h 13mph /  20.9km/h 59% 0in /  0.0mm 909 W/m2
13:17 80.1 °F /  26.7 °C 64.4 °F /  18 °C 30.1in /  1018.3hPa NW 0.9mph /  1.4km/h 5mph /  8km/h 59% 0in /  0.0mm 928 W/m2
13:22 80.2 °F /  26.8 °C 65.1 °F /  18.4 °C 30.1in /  1018.0hPa ENE 0.9mph /  1.4km/h 11mph /  17.7km/h 60% 0in /  0.0mm 926 W/m2
13:27 81 °F /  27.2 °C 65.3 °F /  18.5 °C 30.1in /  1018.0hPa NW 0.9mph /  1.4km/h 4mph /  6.4km/h 59% 0in /  0.0mm 925 W/m2
13:32 81.5 °F /  27.5 °C 66.7 °F /  19.3 °C 30.1in /  1018.0hPa SE 2mph /  3.2km/h 8mph /  12.9km/h 61% 0in /  0.0mm 904 W/m2
13:37 81.1 °F /  27.3 °C 64 °F /  17.8 °C 30.1in /  1018.0hPa East 0.9mph /  1.4km/h 4mph /  6.4km/h 56% 0in /  0.0mm 895 W/m2
13:42 81.1 °F /  27.3 °C 65.5 °F /  18.6 °C 30.1in /  1017.6hPa South 4.9mph /  7.9km/h 8mph /  12.9km/h 59% 0in /  0.0mm 891 W/m2
13:47 81.1 °F /  27.3 °C 65.5 °F /  18.6 °C 30.1in /  1017.6hPa ENE 6mph /  9.7km/h 6mph /  9.7km/h 59% 0in /  0.0mm 888 W/m2
13:52 81.1 °F /  27.3 °C 66.4 °F /  19.1 °C 30.1in /  1017.6hPa ENE 2.9mph /  4.7km/h 4mph /  6.4km/h 61% 0in /  0.0mm 896 W/m2
13:57 81.1 °F /  27.3 °C 65.5 °F /  18.6 °C 30.1in /  1017.6hPa NE 2mph /  3.2km/h 5mph /  8km/h 59% 0in /  0.0mm 898 W/m2
14:02 81.1 °F /  27.3 °C 66 °F /  18.9 °C 30.1in /  1017.6hPa ESE 4mph /  6.4km/h 8mph /  12.9km/h 60% 0in /  0.0mm 932 W/m2
14:07 81.1 °F /  27.3 °C 66.9 °F /  19.4 °C 30.1in /  1017.6hPa North 2.9mph /  4.7km/h 4mph /  6.4km/h 62% 0in /  0.0mm 178 W/m2
14:12 81.3 °F /  27.4 °C 65.7 °F /  18.7 °C 30.1in /  1017.6hPa South 2mph /  3.2km/h 8mph /  12.9km/h 59% 0in /  0.0mm 958 W/m2
14:17 81.3 °F /  27.4 °C 65.1 °F /  18.4 °C 30in /  1017.3hPa SE 0.9mph /  1.4km/h 6mph /  9.7km/h 58% 0in /  0.0mm 970 W/m2
14:22 82 °F /  27.8 °C 65.8 °F /  18.8 °C 30in /  1017.3hPa East 2.9mph /  4.7km/h 8mph /  12.9km/h 58% 0in /  0.0mm 935 W/m2
14:27 82.2 °F /  27.9 °C 66 °F /  18.9 °C 30in /  1017.3hPa SSW 2mph /  3.2km/h 9mph /  14.5km/h 58% 0in /  0.0mm 919 W/m2
14:32 82.2 °F /  27.9 °C 63.9 °F /  17.7 °C 30in /  1017.3hPa ESE 2mph /  3.2km/h 3mph /  4.8km/h 54% 0in /  0.0mm 925 W/m2
14:37 82 °F /  27.8 °C 65.8 °F /  18.8 °C 30in /  1016.9hPa North 0.9mph /  1.4km/h 3mph /  4.8km/h 58% 0in /  0.0mm 165 W/m2
14:42 81.9 °F /  27.7 °C 64.6 °F /  18.1 °C 30in /  1016.9hPa WNW 0.9mph /  1.4km/h 8mph /  12.9km/h 56% 0in /  0.0mm 986 W/m2
14:52 81.1 °F /  27.3 °C 64.4 °F /  18 °C 30in /  1016.9hPa WSW 0.9mph /  1.4km/h 3mph /  4.8km/h 57% 0in /  0.0mm 213 W/m2
14:57 81.1 °F /  27.3 °C 66 °F /  18.9 °C 30in /  1016.9hPa ENE 2.9mph /  4.7km/h 4mph /  6.4km/h 60% 0in /  0.0mm 1060 W/m2
15:02 81.3 °F /  27.4 °C 66 °F /  18.9 °C 30in /  1016.9hPa ENE 0.9mph /  1.4km/h 3mph /  4.8km/h 60% 0in /  0.0mm 1074 W/m2
15:07 81.5 °F /  27.5 °C 65.3 °F /  18.5 °C 30in /  1016.9hPa East 0.9mph /  1.4km/h 3mph /  4.8km/h 58% 0in /  0.0mm 638 W/m2
15:12 81.1 °F /  27.3 °C 65.5 °F /  18.6 °C 30in /  1016.9hPa SW 4.9mph /  7.9km/h 6mph /  9.7km/h 59% 0in /  0.0mm 352 W/m2
15:17 81.1 °F /  27.3 °C 66.4 °F /  19.1 °C 30in /  1016.9hPa West 2mph /  3.2km/h 5mph /  8km/h 61% 0in /  0.0mm 352 W/m2
15:22 81.3 °F /  27.4 °C 64.6 °F /  18.1 °C 30in /  1016.9hPa NE 0.9mph /  1.4km/h 6mph /  9.7km/h 57% 0in /  0.0mm 343 W/m2
15:27 81.1 °F /  27.3 °C 64.9 °F /  18.3 °C 30in /  1016.6hPa NE 0.9mph /  1.4km/h 6mph /  9.7km/h 58% 0in /  0.0mm 239 W/m2
15:33 81.1 °F /  27.3 °C 66 °F /  18.9 °C 30in /  1016.6hPa ESE 6.9mph /  11.1km/h 7mph /  11.3km/h 60% 0in /  0.0mm 295 W/m2
15:38 81 °F /  27.2 °C 64.8 °F /  18.2 °C 30in /  1016.6hPa East 8.1mph /  13km/h 12mph /  19.3km/h 58% 0in /  0.0mm 292 W/m2
15:43 81.1 °F /  27.3 °C 65.5 °F /  18.6 °C 30in /  1016.3hPa SE 0.9mph /  1.4km/h 4mph /  6.4km/h 59% 0in /  0.0mm 1018 W/m2
15:48 82 °F /  27.8 °C 65.3 °F /  18.5 °C 30in /  1016.6hPa South 0.9mph /  1.4km/h 12mph /  19.3km/h 57% 0in /  0.0mm 993 W/m2
15:53 81.3 °F /  27.4 °C 64 °F /  17.8 °C 30in /  1016.6hPa NW 4.9mph /  7.9km/h 9mph /  14.5km/h 56% 0in /  0.0mm 279 W/m2
15:58 80.8 °F /  27.1 °C 64.6 °F /  18.1 °C 30in /  1016.3hPa NW 0.9mph /  1.4km/h 5mph /  8km/h 58% 0in /  0.0mm 343 W/m2
16:03 81.1 °F /  27.3 °C 66.4 °F /  19.1 °C 30in /  1016.3hPa WNW 8.1mph /  13km/h 8mph /  12.9km/h 61% 0in /  0.0mm 900 W/m2
16:08 81.3 °F /  27.4 °C 65.7 °F /  18.7 °C 30in /  1016.3hPa WSW 2mph /  3.2km/h 11mph /  17.7km/h 59% 0in /  0.0mm 705 W/m2
16:13 81 °F /  27.2 °C 65.8 °F /  18.8 °C 30in /  1016.3hPa NW 4.9mph /  7.9km/h 8mph /  12.9km/h 60% 0in /  0.0mm 851 W/m2
16:18 80.8 °F /  27.1 °C 65.7 °F /  18.7 °C 30in /  1016.6hPa West 6mph /  9.7km/h 11mph /  17.7km/h 60% 0in /  0.0mm 949 W/m2
16:23 81.1 °F /  27.3 °C 66.4 °F /  19.1 °C 30in /  1016.6hPa WNW 4mph /  6.4km/h 8mph /  12.9km/h 61% 0in /  0.0mm 972 W/m2
16:28 81.1 °F /  27.3 °C 64.4 °F /  18 °C 30in /  1016.6hPa WNW 2mph /  3.2km/h 7mph /  11.3km/h 57% 0in /  0.0mm 895 W/m2
16:33 81.3 °F /  27.4 °C 65.1 °F /  18.4 °C 30in /  1016.6hPa ESE 2mph /  3.2km/h 4mph /  6.4km/h 58% 0in /  0.0mm 870 W/m2
16:38 81.9 °F /  27.7 °C 65.7 °F /  18.7 °C 30in /  1016.6hPa WNW 2.9mph /  4.7km/h 4mph /  6.4km/h 58% 0in /  0.0mm 874 W/m2
16:43 82.2 °F /  27.9 °C 66 °F /  18.9 °C 30in /  1016.3hPa West 2.9mph /  4.7km/h 3mph /  4.8km/h 58% 0in /  0.0mm 884 W/m2
16:48 82.8 °F /  28.2 °C 65.5 °F /  18.6 °C 30in /  1016.3hPa Calm   4mph /  6.4km/h 56% 0in /  0.0mm 376 W/m2
16:53 82.6 °F /  28.1 °C 64.2 °F /  17.9 °C 30in /  1016.3hPa WNW 2mph /  3.2km/h 3mph /  4.8km/h 54% 0in /  0.0mm 264 W/m2
16:58 81.9 °F /  27.7 °C 64.6 °F /  18.1 °C 30in /  1016.3hPa SSE 2mph /  3.2km/h 5mph /  8km/h 56% 0in /  0.0mm 176 W/m2
17:03 80.8 °F /  27.1 °C 65.1 °F /  18.4 °C 30in /  1016.3hPa WNW 2.9mph /  4.7km/h 7mph /  11.3km/h 59% 0in /  0.0mm 216 W/m2
17:08 79.9 °F /  26.6 °C 65.3 °F /  18.5 °C 30in /  1016.3hPa NNW 2.9mph /  4.7km/h 9mph /  14.5km/h 61% 0in /  0.0mm 183 W/m2
17:13 79.2 °F /  26.2 °C 65.5 °F /  18.6 °C 30in /  1016.3hPa ENE 0.9mph /  1.4km/h 6mph /  9.7km/h 63% 0in /  0.0mm 151 W/m2
17:18 78.4 °F /  25.8 °C 64.8 °F /  18.2 °C 30in /  1016.3hPa WNW 0.9mph /  1.4km/h 9mph /  14.5km/h 63% 0in /  0.0mm 128 W/m2
17:23 78.3 °F /  25.7 °C 65.1 °F /  18.4 °C 30in /  1016.3hPa WSW 0.9mph /  1.4km/h 6mph /  9.7km/h 64% 0in /  0.0mm 127 W/m2
17:28 77.7 °F /  25.4 °C 65.5 °F /  18.6 °C 30in /  1016.3hPa SW 2mph /  3.2km/h 4mph /  6.4km/h 66% 0in /  0.0mm 167 W/m2
17:33 77.5 °F /  25.3 °C 65.7 °F /  18.7 °C 30in /  1016.3hPa WNW 2mph /  3.2km/h 6mph /  9.7km/h 67% 0in /  0.0mm 334 W/m2
17:38 77.9 °F /  25.5 °C 66 °F /  18.9 °C 30in /  1015.9hPa NNE 2.9mph /  4.7km/h 4mph /  6.4km/h 67% 0in /  0.0mm 635 W/m2
17:43 78.1 °F /  25.6 °C 63.5 °F /  17.5 °C 30in /  1016.3hPa East 6mph /  9.7km/h 7mph /  11.3km/h 61% 0in /  0.0mm 199 W/m2
17:48 77.7 °F /  25.4 °C 64 °F /  17.8 °C 30in /  1016.3hPa NNE 0.9mph /  1.4km/h 3mph /  4.8km/h 63% 0in /  0.0mm 123 W/m2
17:53 77.5 °F /  25.3 °C 64.4 °F /  18 °C 30in /  1016.9hPa West 8.9mph /  14.3km/h 9mph /  14.5km/h 64% 0in /  0.0mm 14 W/m2
17:58 75 °F /  23.9 °C 62.1 °F /  16.7 °C 30in /  1017.3hPa NW 11mph /  17.7km/h 14mph /  22.5km/h 64% 0in /  0.0mm 12 W/m2
18:03 72.1 °F /  22.3 °C 61 °F /  16.1 °C 30.1in /  1017.6hPa WNW 15mph /  24.1km/h 15mph /  24.1km/h 68% 0in /  0.0mm 23 W/m2
18:08 69.1 °F /  20.6 °C 58.5 °F /  14.7 °C 30in /  1017.3hPa NW 10.1mph /  16.3km/h 20mph /  32.2km/h 69% 0in /  0.0mm 47 W/m2
18:13 67.1 °F /  19.5 °C 59.4 °F /  15.2 °C 30in /  1017.3hPa West 6mph /  9.7km/h 17mph /  27.4km/h 76% 0in /  0.0mm 53 W/m2
18:18 66.6 °F /  19.2 °C 59.2 °F /  15.1 °C 30.1in /  1017.6hPa WSW 6.9mph /  11.1km/h 20mph /  32.2km/h 77% 0in /  0.0mm 42 W/m2
18:23 66.4 °F /  19.1 °C 59.7 °F /  15.4 °C 30in /  1017.3hPa West 2mph /  3.2km/h 14mph /  22.5km/h 79% 0in /  0.0mm 28 W/m2
18:28 65.8 °F /  18.8 °C 60.3 °F /  15.7 °C 30in /  1017.3hPa West 10.1mph /  16.3km/h 17mph /  27.4km/h 82% 0in /  0.0mm 37 W/m2
18:33 65.3 °F /  18.5 °C 60.6 °F /  15.9 °C 30in /  1017.3hPa WNW 6.9mph /  11.1km/h 14mph /  22.5km/h 85% 0.04in /  1.0mm 28 W/m2
18:38 64.8 °F /  18.2 °C 61.2 °F /  16.2 °C 30in /  1017.3hPa WNW 6.9mph /  11.1km/h 17mph /  27.4km/h 88% 0.06in /  1.5mm 23 W/m2
18:43 64.6 °F /  18.1 °C 61.3 °F /  16.3 °C 30in /  1017.3hPa West 6mph /  9.7km/h 12mph /  19.3km/h 89% 0.06in /  1.5mm 21 W/m2
18:48 64.6 °F /  18.1 °C 61.3 °F /  16.3 °C 30.1in /  1017.6hPa West 6mph /  9.7km/h 10mph /  16.1km/h 89% 0.06in /  1.5mm 32 W/m2
18:53 64.6 °F /  18.1 °C 61.3 °F /  16.3 °C 30in /  1017.3hPa West 6.9mph /  11.1km/h 11mph /  17.7km/h 89% 0.06in /  1.5mm 44 W/m2
18:58 64.6 °F /  18.1 °C 61.3 °F /  16.3 °C 30.1in /  1017.6hPa West 2.9mph /  4.7km/h 7mph /  11.3km/h 89% 0.06in /  1.5mm 44 W/m2
19:03 64.8 °F /  18.2 °C 61.7 °F /  16.5 °C 30.1in /  1017.6hPa West 2mph /  3.2km/h 4mph /  6.4km/h 90% 0.06in /  1.5mm 40 W/m2
19:08 64.8 °F /  18.2 °C 61.7 °F /  16.5 °C 30.1in /  1018.0hPa WSW 0.9mph /  1.4km/h 2mph /  3.2km/h 90% 0.06in /  1.5mm 40 W/m2
19:13 64.9 °F /  18.3 °C 61.9 °F /  16.6 °C 30.1in /  1018.0hPa WNW 0.9mph /  1.4km/h 2mph /  3.2km/h 90% 0.06in /  1.5mm 44 W/m2
19:18 64.9 °F /  18.3 °C 62.2 °F /  16.8 °C 30.1in /  1018.0hPa West 2mph /  3.2km/h 3mph /  4.8km/h 91% 0.06in /  1.5mm 49 W/m2
19:23 64.9 °F /  18.3 °C 62.2 °F /  16.8 °C 30.1in /  1018.0hPa West 0.9mph /  1.4km/h 3mph /  4.8km/h 91% 0.06in /  1.5mm 49 W/m2
19:28 64.9 °F /  18.3 °C 62.2 °F /  16.8 °C 30.1in /  1018.0hPa Calm   2mph /  3.2km/h 91% 0.06in /  1.5mm 44 W/m2
19:33 64.9 °F /  18.3 °C 62.6 °F /  17 °C 30.1in /  1018.3hPa WSW 0.9mph /  1.4km/h 2mph /  3.2km/h 92% 0.02in /  0.5mm 32 W/m2
19:38 65.1 °F /  18.4 °C 62.8 °F /  17.1 °C 30.1in /  1018.3hPa Calm   1mph /  1.6km/h 92% 0.01in /  0.2mm 33 W/m2
19:43 65.1 °F /  18.4 °C 62.8 °F /  17.1 °C 30.1in /  1018.3hPa Calm     92% 0in /  0.0mm 37 W/m2
19:48 65.1 °F /  18.4 °C 63 °F /  17.2 °C 30.1in /  1018.3hPa Calm   1mph /  1.6km/h 93% 0in /  0.0mm 39 W/m2
19:53 64.9 °F /  18.3 °C 62.8 °F /  17.1 °C 30.1in /  1018.6hPa Calm     93% 0in /  0.0mm 42 W/m2
19:58 64.9 °F /  18.3 °C 62.8 °F /  17.1 °C 30.1in /  1018.6hPa Calm     93% 0in /  0.0mm 42 W/m2
20:03 64.9 °F /  18.3 °C 62.8 °F /  17.1 °C 30.1in /  1018.6hPa Calm     93% 0in /  0.0mm 40 W/m2
20:08 64.9 °F /  18.3 °C 62.8 °F /  17.1 °C 30.1in /  1018.6hPa Calm     93% 0in /  0.0mm 37 W/m2
20:13 64.8 °F /  18.2 °C 62.6 °F /  17 °C 30.1in /  1018.6hPa Calm   1mph /  1.6km/h 93% 0in /  0.0mm 35 W/m2
20:18 64.9 °F /  18.3 °C 62.8 °F /  17.1 °C 30.1in /  1018.6hPa Calm     93% 0in /  0.0mm 30 W/m2
20:23 64.9 °F /  18.3 °C 62.8 °F /  17.1 °C 30.1in /  1018.6hPa Calm     93% 0in /  0.0mm 30 W/m2
20:28 64.9 °F /  18.3 °C 63.1 °F /  17.3 °C 30.1in /  1018.3hPa Calm     94% 0in /  0.0mm 30 W/m2
20:33 64.9 °F /  18.3 °C 62.8 °F /  17.1 °C 30.1in /  1018.3hPa Calm     93% 0in /  0.0mm 30 W/m2
20:38 64.8 °F /  18.2 °C 62.6 °F /  17 °C 30.1in /  1018.3hPa ENE 0.9mph /  1.4km/h 1mph /  1.6km/h 93% 0in /  0.0mm 25 W/m2
20:43 64.8 °F /  18.2 °C 62.4 °F /  16.9 °C 30.1in /  1018.3hPa ESE 0.9mph /  1.4km/h 2mph /  3.2km/h 92% 0in /  0.0mm 21 W/m2
20:48 64.8 °F /  18.2 °C 62.4 °F /  16.9 °C 30.1in /  1018.3hPa ENE 0.9mph /  1.4km/h 5mph /  8km/h 92% 0in /  0.0mm 19 W/m2
20:53 64.6 °F /  18.1 °C 62.2 °F /  16.8 °C 30.1in /  1018.3hPa SE 0.9mph /  1.4km/h 1mph /  1.6km/h 92% 0in /  0.0mm 18 W/m2
20:58 64.6 °F /  18.1 °C 62.2 °F /  16.8 °C 30.1in /  1018.6hPa SE 0.9mph /  1.4km/h 5mph /  8km/h 92% 0in /  0.0mm 16 W/m2
21:03 64.4 °F /  18 °C 62.1 °F /  16.7 °C 30.1in /  1018.3hPa Calm     92% 0in /  0.0mm 14 W/m2
21:08 64.2 °F /  17.9 °C 61.9 °F /  16.6 °C 30.1in /  1018.0hPa Calm   1mph /  1.6km/h 92% 0in /  0.0mm 12 W/m2
21:13 64 °F /  17.8 °C 61.7 °F /  16.5 °C 30.1in /  1018.0hPa SE 0.9mph /  1.4km/h 2mph /  3.2km/h 92% 0in /  0.0mm 11 W/m2
21:18 63.9 °F /  17.7 °C 61.5 °F /  16.4 °C 30.1in /  1018.0hPa Calm   1mph /  1.6km/h 92% 0in /  0.0mm 9 W/m2
21:23 63.9 °F /  17.7 °C 61.5 °F /  16.4 °C 30.1in /  1018.0hPa Calm   1mph /  1.6km/h 92% 0in /  0.0mm 5 W/m2
21:28 63.5 °F /  17.5 °C 61.2 °F /  16.2 °C 30.1in /  1018.0hPa Calm     92% 0in /  0.0mm 0 W/m2
21:34 63.3 °F /  17.4 °C 61 °F /  16.1 °C 30.1in /  1018.0hPa Calm   1mph /  1.6km/h 92% 0in /  0.0mm 0 W/m2
21:39 63.1 °F /  17.3 °C 61.2 °F /  16.2 °C 30.1in /  1018.0hPa Calm     93% 0in /  0.0mm 0 W/m2
21:44 62.8 °F /  17.1 °C 60.4 °F /  15.8 °C 30.1in /  1018.0hPa Calm     92% 0in /  0.0mm 0 W/m2
21:49 62.4 °F /  16.9 °C 60.4 °F /  15.8 °C 30.1in /  1018.3hPa Calm     93% 0in /  0.0mm 0 W/m2
21:54 62.2 °F /  16.8 °C 60.3 °F /  15.7 °C 30.1in /  1018.3hPa SSE 0.9mph /  1.4km/h 2mph /  3.2km/h 93% 0in /  0.0mm 0 W/m2
21:59 62.1 °F /  16.7 °C 60.1 °F /  15.6 °C 30.1in /  1018.3hPa SSE 0.9mph /  1.4km/h 1mph /  1.6km/h 93% 0in /  0.0mm 0 W/m2
22:04 61.9 °F /  16.6 °C 59.9 °F /  15.5 °C 30.1in /  1018.6hPa Calm     93% 0in /  0.0mm 0 W/m2
22:09 61.9 °F /  16.6 °C 60.1 °F /  15.6 °C 30.1in /  1018.6hPa Calm     94% 0in /  0.0mm 0 W/m2
22:14 61.9 °F /  16.6 °C 60.1 °F /  15.6 °C 30.1in /  1018.3hPa Calm     94% 0in /  0.0mm 0 W/m2
22:19 61.5 °F /  16.4 °C 59.7 °F /  15.4 °C 30.1in /  1018.6hPa Calm   1mph /  1.6km/h 94% 0in /  0.0mm 0 W/m2
22:24 61.5 °F /  16.4 °C 59.7 °F /  15.4 °C 30.1in /  1018.6hPa Calm     94% 0in /  0.0mm 0 W/m2
22:29 61.3 °F /  16.3 °C 59.5 °F /  15.3 °C 30.1in /  1018.6hPa Calm   1mph /  1.6km/h 94% 0in /  0.0mm 0 W/m2
22:34 61.3 °F /  16.3 °C 59.5 °F /  15.3 °C 30.1in /  1018.6hPa Calm     94% 0in /  0.0mm 0 W/m2
22:39 61.3 °F /  16.3 °C 59.5 °F /  15.3 °C 30.1in /  1018.6hPa Calm     94% 0in /  0.0mm 0 W/m2
22:44 61.3 °F /  16.3 °C 59.9 °F /  15.5 °C 30.1in /  1018.6hPa Calm     95% 0in /  0.0mm 0 W/m2
22:49 61.3 °F /  16.3 °C 59.9 °F /  15.5 °C 30.1in /  1018.6hPa Calm   1mph /  1.6km/h 95% 0in /  0.0mm 0 W/m2
22:54 61.3 °F /  16.3 °C 59.9 °F /  15.5 °C 30.1in /  1018.6hPa Calm   1mph /  1.6km/h 95% 0in /  0.0mm 0 W/m2
22:59 61.3 °F /  16.3 °C 59.9 °F /  15.5 °C 30.1in /  1018.6hPa West 2mph /  3.2km/h 2mph /  3.2km/h 95% 0in /  0.0mm 0 W/m2
23:04 61.3 °F /  16.3 °C 59.9 °F /  15.5 °C 30.1in /  1018.6hPa West 2mph /  3.2km/h 2mph /  3.2km/h 95% 0in /  0.0mm 0 W/m2
23:09 61.5 °F /  16.4 °C 60.1 °F /  15.6 °C 30.1in /  1018.6hPa WNW 0.9mph /  1.4km/h 3mph /  4.8km/h 95% 0in /  0.0mm 0 W/m2
23:14 61.9 °F /  16.6 °C 60.4 °F /  15.8 °C 30.1in /  1018.3hPa WNW 0.9mph /  1.4km/h 3mph /  4.8km/h 95% 0in /  0.0mm 0 W/m2
23:19 61.9 °F /  16.6 °C 60.4 °F /  15.8 °C 30.1in /  1018.6hPa WNW 0.9mph /  1.4km/h 2mph /  3.2km/h 95% 0in /  0.0mm 0 W/m2
23:24 61.9 °F /  16.6 °C 60.4 °F /  15.8 °C 30.1in /  1018.6hPa Calm   1mph /  1.6km/h 95% 0in /  0.0mm 0 W/m2
23:29 61.7 °F /  16.5 °C 60.3 °F /  15.7 °C 30.1in /  1018.6hPa Calm     95% 0in /  0.0mm 0 W/m2
23:34 61.7 °F /  16.5 °C 60.3 °F /  15.7 °C 30.1in /  1018.3hPa Calm     95% 0in /  0.0mm 0 W/m2
23:39 61.7 °F /  16.5 °C 60.3 °F /  15.7 °C 30.1in /  1018.6hPa Calm     95% 0in /  0.0mm 0 W/m2
23:44 61.7 °F /  16.5 °C 60.3 °F /  15.7 °C 30.1in /  1018.6hPa Calm   2mph /  3.2km/h 95% 0in /  0.0mm 0 W/m2
23:49 61.7 °F /  16.5 °C 60.3 °F /  15.7 °C 30.1in /  1018.6hPa WSW 0.9mph /  1.4km/h 2mph /  3.2km/h 95% 0in /  0.0mm 0 W/m2
23:54 62.1 °F /  16.7 °C 61 °F /  16.1 °C 30.1in /  1018.6hPa WSW 0.9mph /  1.4km/h 4mph /  6.4km/h 96% 0in /  0.0mm 0 W/m2
23:59 62.2 °F /  16.8 °C 61.2 °F /  16.2 °C 30.1in /  1018.6hPa WNW 2mph /  3.2km/h 3mph /  4.8km/h 96% 0in /  0.0mm 0 W/m2
Juneau County Weather
Compliments of Weather Underground - 2 mb